^^
Station Historical Data
Daily Summary for October 11, 2017 Units:  English    Metric   Both
« Previous Day
Next Day »
Daily Weekly Monthly Yearly Custom
  High: Low: Average:
Temperature: 79.3 °F 63.0 °F 69.9 °F
Dew Point: 70.9 °F 62.1 °F 65.3 °F
Humidity: 100% 61% 87%
Wind Speed: 4.0mph 0.0mph 0.1mph
Wind Gust: 5.0mph - -
Wind- - East
Pressure: 30.16 in 30.09 in -
Precipitation: 0.00 in    
Historical Graphs
 
 
Tabular Data for October 11, 2017
Time Temperature Dew Point Pressure Wind Wind Speed Wind Gust Humidity Rainfall Rate (Hourly)
00:03 66.6 °F 66.0 °F 30.15 in Calm   1.0 mph 98% 0.00 in
00:08 66.4 °F 65.8 °F 30.15 in Calm     98% 0.00 in
00:13 66.2 °F 65.7 °F 30.15 in Calm     98% 0.00 in
00:18 66.0 °F 65.5 °F 30.15 in Calm     98% 0.00 in
00:23 66.0 °F 65.5 °F 30.15 in SSE 0.9 mph 1.0 mph 98% 0.00 in
00:28 66.4 °F 65.8 °F 30.15 in Calm     98% 0.00 in
00:33 66.0 °F 65.5 °F 30.15 in Calm     98% 0.00 in
00:38 65.8 °F 65.3 °F 30.15 in Calm     98% 0.00 in
00:43 65.8 °F 65.3 °F 30.15 in Calm     98% 0.00 in
00:48 65.8 °F 65.3 °F 30.15 in Calm     98% 0.00 in
00:53 65.8 °F 65.3 °F 30.15 in Calm     98% 0.00 in
01:03 65.7 °F 65.1 °F 30.14 in Calm     98% 0.00 in
01:08 65.7 °F 65.1 °F 30.14 in Calm     98% 0.00 in
01:14 65.5 °F 64.9 °F 30.14 in Calm     98% 0.00 in
01:18 65.1 °F 64.6 °F 30.14 in Calm     98% 0.00 in
01:23 65.1 °F 64.6 °F 30.14 in Calm     98% 0.00 in
01:29 65.1 °F 64.8 °F 30.14 in Calm     99% 0.00 in
01:34 65.1 °F 64.8 °F 30.14 in Calm     99% 0.00 in
01:39 65.1 °F 64.8 °F 30.14 in Calm     99% 0.00 in
01:44 65.1 °F 64.8 °F 30.14 in Calm     99% 0.00 in
01:49 65.1 °F 64.8 °F 30.14 in Calm     99% 0.00 in
01:54 64.9 °F 64.6 °F 30.14 in Calm     99% 0.00 in
01:59 64.8 °F 64.4 °F 30.14 in Calm     99% 0.00 in
02:04 64.6 °F 64.2 °F 30.14 in Calm     99% 0.00 in
02:09 64.6 °F 64.2 °F 30.14 in Calm   1.0 mph 99% 0.00 in
02:14 64.8 °F 64.4 °F 30.14 in Calm     99% 0.00 in
02:19 64.8 °F 64.4 °F 30.14 in Calm     99% 0.00 in
02:24 64.6 °F 64.2 °F 30.14 in Calm     99% 0.00 in
02:29 64.6 °F 64.2 °F 30.13 in Calm     99% 0.00 in
02:34 64.6 °F 64.2 °F 30.14 in Calm     99% 0.00 in
02:39 64.6 °F 64.2 °F 30.14 in Calm     99% 0.00 in
02:44 64.6 °F 64.2 °F 30.13 in Calm     99% 0.00 in
02:49 64.6 °F 64.2 °F 30.14 in Calm     99% 0.00 in
02:54 64.6 °F 64.2 °F 30.13 in Calm     99% 0.00 in
02:59 64.6 °F 64.2 °F 30.14 in Calm     99% 0.00 in
03:04 64.2 °F 63.9 °F 30.14 in Calm     99% 0.00 in
03:09 64.0 °F 63.7 °F 30.14 in Calm     99% 0.00 in
03:14 64.0 °F 63.7 °F 30.14 in Calm     99% 0.00 in
03:19 64.0 °F 63.7 °F 30.14 in Calm     99% 0.00 in
03:24 64.0 °F 63.7 °F 30.14 in Calm     99% 0.00 in
03:29 64.0 °F 63.7 °F 30.14 in Calm     99% 0.00 in
03:35 64.0 °F 63.7 °F 30.14 in Calm     99% 0.00 in
03:40 64.2 °F 63.9 °F 30.14 in Calm     99% 0.00 in
03:45 64.2 °F 63.9 °F 30.13 in Calm     99% 0.00 in
03:50 64.2 °F 63.9 °F 30.13 in Calm     99% 0.00 in
03:55 64.2 °F 63.9 °F 30.13 in Calm     99% 0.00 in
04:00 64.0 °F 63.7 °F 30.13 in Calm     99% 0.00 in
04:05 64.0 °F 63.7 °F 30.13 in Calm     99% 0.00 in
04:10 64.0 °F 63.7 °F 30.13 in Calm     99% 0.00 in
04:15 64.0 °F 63.7 °F 30.12 in Calm     99% 0.00 in
04:20 64.0 °F 63.7 °F 30.12 in Calm     99% 0.00 in
04:25 64.0 °F 63.7 °F 30.12 in Calm     99% 0.00 in
04:30 63.9 °F 63.5 °F 30.12 in Calm     99% 0.00 in
04:35 64.0 °F 63.7 °F 30.12 in Calm     99% 0.00 in
04:40 64.0 °F 63.7 °F 30.12 in Calm     99% 0.00 in
04:45 64.0 °F 63.7 °F 30.12 in Calm     99% 0.00 in
04:50 64.0 °F 63.7 °F 30.13 in Calm     99% 0.00 in
04:55 64.0 °F 63.7 °F 30.13 in Calm     99% 0.00 in
05:00 63.9 °F 63.5 °F 30.13 in Calm     99% 0.00 in
05:05 63.9 °F 63.5 °F 30.13 in Calm     99% 0.00 in
05:10 63.9 °F 63.5 °F 30.13 in Calm     99% 0.00 in
05:15 63.9 °F 63.5 °F 30.13 in Calm     99% 0.00 in
05:25 63.9 °F 63.5 °F 30.13 in Calm     99% 0.00 in
05:30 63.9 °F 63.5 °F 30.12 in Calm     99% 0.00 in
05:35 63.9 °F 63.5 °F 30.12 in Calm     99% 0.00 in
05:45 63.9 °F 63.5 °F 30.13 in Calm     99% 0.00 in
05:50 63.9 °F 63.5 °F 30.13 in Calm     99% 0.00 in
05:55 63.7 °F 63.3 °F 30.13 in Calm     99% 0.00 in
06:05 63.9 °F 63.5 °F 30.13 in Calm     99% 0.00 in
06:10 63.7 °F 63.3 °F 30.13 in Calm     99% 0.00 in
06:15 63.7 °F 63.3 °F 30.13 in Calm     99% 0.00 in
06:20 63.7 °F 63.3 °F 30.13 in Calm     99% 0.00 in
06:25 63.7 °F 63.3 °F 30.14 in Calm     99% 0.00 in
06:30 63.5 °F 63.1 °F 30.13 in East 0.9 mph 1.0 mph 99% 0.00 in
06:35 63.5 °F 63.1 °F 30.14 in Calm     99% 0.00 in
06:45 63.3 °F 63.0 °F 30.14 in Calm     99% 0.00 in
06:50 63.3 °F 63.0 °F 30.14 in Calm     99% 0.00 in
06:55 63.3 °F 63.0 °F 30.14 in Calm     99% 0.00 in
07:00 63.3 °F 63.0 °F 30.14 in Calm     99% 0.00 in
07:05 63.3 °F 63.0 °F 30.14 in Calm   1.0 mph 99% 0.00 in
07:10 63.3 °F 63.0 °F 30.14 in Calm     99% 0.00 in
07:15 63.1 °F 62.8 °F 30.14 in Calm     99% 0.00 in
07:20 63.1 °F 62.8 °F 30.14 in Calm   1.0 mph 99% 0.00 in
07:25 63.1 °F 62.8 °F 30.14 in Calm     99% 0.00 in
07:30 63.1 °F 62.8 °F 30.14 in Calm     99% 0.00 in
07:35 63.1 °F 62.8 °F 30.15 in Calm     99% 0.00 in
07:40 63.1 °F 62.8 °F 30.15 in Calm     99% 0.00 in
07:46 63.1 °F 62.8 °F 30.15 in Calm     99% 0.00 in
07:51 63.1 °F 62.8 °F 30.15 in Calm     99% 0.00 in
08:01 63.1 °F 62.8 °F 30.15 in Calm     99% 0.00 in
08:06 63.1 °F 62.8 °F 30.15 in WNW 0.9 mph 1.0 mph 99% 0.00 in
08:11 63.0 °F 62.6 °F 30.15 in Calm     99% 0.00 in
08:16 63.0 °F 62.6 °F 30.16 in Calm     99% 0.00 in
08:21 63.1 °F 62.8 °F 30.16 in Calm     99% 0.00 in
08:26 63.1 °F 62.8 °F 30.16 in Calm     99% 0.00 in
08:31 63.3 °F 63.0 °F 30.16 in Calm     99% 0.00 in
08:36 63.3 °F 63.0 °F 30.16 in Calm     99% 0.00 in
08:41 63.3 °F 63.0 °F 30.16 in Calm     99% 0.00 in
08:46 63.5 °F 63.1 °F 30.16 in Calm     99% 0.00 in
08:52 63.7 °F 63.3 °F 30.16 in Calm     99% 0.00 in
08:57 63.9 °F 63.9 °F 30.16 in Calm     100% 0.00 in
09:02 63.9 °F 63.5 °F 30.16 in Calm     99% 0.00 in
09:07 64.0 °F 63.7 °F 30.16 in Calm   1.0 mph 99% 0.00 in
09:12 64.6 °F 64.2 °F 30.16 in Calm     99% 0.00 in
09:22 65.8 °F 65.8 °F 30.16 in Calm     100% 0.00 in
09:27 66.2 °F 65.8 °F 30.16 in ESE 0.9 mph 1.0 mph 99% 0.00 in
09:32 66.6 °F 66.0 °F 30.16 in SE 2.0 mph 2.0 mph 98% 0.00 in
09:37 66.7 °F 65.8 °F 30.16 in NE 0.9 mph 2.0 mph 97% 0.00 in
09:43 67.5 °F 66.2 °F 30.16 in Calm     96% 0.00 in
09:47 68.2 °F 66.9 °F 30.16 in Calm     96% 0.00 in
09:53 69.3 °F 67.8 °F 30.16 in Calm   1.0 mph 95% 0.00 in
09:58 70.2 °F 68.0 °F 30.16 in Calm     93% 0.00 in
10:03 70.5 °F 67.8 °F 30.16 in Calm     91% 0.00 in
10:08 70.5 °F 67.5 °F 30.16 in Calm     90% 0.00 in
10:13 70.3 °F 67.3 °F 30.16 in Calm     90% 0.00 in
10:18 70.0 °F 67.3 °F 30.16 in Calm     91% 0.00 in
10:23 69.8 °F 67.3 °F 30.16 in Calm     92% 0.00 in
10:28 70.0 °F 67.8 °F 30.16 in Calm     93% 0.00 in
10:38 71.6 °F 69.1 °F 30.16 in Calm     92% 0.00 in
10:43 72.9 °F 70.2 °F 30.16 in Calm     91% 0.00 in
10:45 73.4 °F 69.6 °F 30.16 in Calm     88% 0.00 in
10:50 74.5 °F 69.6 °F 30.16 in Calm   1.0 mph 85% 0.00 in
10:55 74.7 °F 69.8 °F 30.16 in Calm     85% 0.00 in
11:00 75.4 °F 70.2 °F 30.16 in NE 0.9 mph 1.0 mph 84% 0.00 in
11:05 75.4 °F 69.4 °F 30.16 in Calm   1.0 mph 82% 0.00 in
11:10 75.7 °F 70.2 °F 30.15 in Calm   1.0 mph 83% 0.00 in
11:15 76.5 °F 70.5 °F 30.15 in Calm   1.0 mph 82% 0.00 in
11:20 77.0 °F 70.0 °F 30.15 in ENE 0.9 mph 1.0 mph 79% 0.00 in
11:25 77.2 °F 70.5 °F 30.15 in Calm     80% 0.00 in
11:30 77.2 °F 69.4 °F 30.15 in East 0.9 mph 1.0 mph 77% 0.00 in
11:35 77.4 °F 70.3 °F 30.15 in Calm     79% 0.00 in
11:40 77.4 °F 70.3 °F 30.15 in East 0.9 mph 1.0 mph 79% 0.00 in
11:45 77.5 °F 70.5 °F 30.15 in East 0.9 mph 1.0 mph 79% 0.00 in
11:51 77.7 °F 70.0 °F 30.15 in ENE 0.9 mph 1.0 mph 77% 0.00 in
12:01 78.1 °F 68.7 °F 30.15 in ENE 0.9 mph 2.0 mph 73% 0.00 in
12:06 78.1 °F 68.7 °F 30.15 in Calm   3.0 mph 73% 0.00 in
12:11 78.3 °F 70.5 °F 30.14 in ENE 0.9 mph 2.0 mph 77% 0.00 in
12:16 78.6 °F 70.9 °F 30.14 in Calm   1.0 mph 77% 0.00 in
12:21 78.8 °F 69.8 °F 30.14 in Calm   1.0 mph 74% 0.00 in
12:26 78.8 °F 69.8 °F 30.14 in East 0.9 mph 3.0 mph 74% 0.00 in
12:31 78.6 °F 68.4 °F 30.14 in ENE 0.9 mph 4.0 mph 71% 0.00 in
12:36 78.4 °F 68.7 °F 30.14 in Calm     72% 0.00 in
12:41 78.4 °F 69.4 °F 30.14 in NE 0.9 mph 3.0 mph 74% 0.00 in
12:46 78.6 °F 68.9 °F 30.14 in NE 2.0 mph 3.0 mph 72% 0.00 in
12:51 79.2 °F 69.8 °F 30.13 in ENE 0.9 mph 2.0 mph 73% 0.00 in
12:56 79.0 °F 69.3 °F 30.13 in Calm   2.0 mph 72% 0.00 in
13:01 78.6 °F 69.3 °F 30.13 in Calm   1.0 mph 73% 0.00 in
13:11 78.4 °F 68.7 °F 30.13 in Calm   1.0 mph 72% 0.00 in
13:16 78.4 °F 67.8 °F 30.13 in NE 0.9 mph 4.0 mph 70% 0.00 in
13:21 78.6 °F 68.4 °F 30.13 in Calm   1.0 mph 71% 0.00 in
13:26 78.6 °F 68.0 °F 30.13 in Calm   1.0 mph 70% 0.00 in
13:31 78.8 °F 68.5 °F 30.13 in Calm   1.0 mph 71% 0.00 in
13:36 79.0 °F 68.0 °F 30.13 in Calm     69% 0.00 in
13:41 79.0 °F 68.4 °F 30.12 in Calm   1.0 mph 70% 0.00 in
13:46 79.0 °F 67.5 °F 30.12 in Calm     68% 0.00 in
13:51 79.0 °F 67.1 °F 30.12 in ENE 4.0 mph 5.0 mph 67% 0.00 in
13:56 79.0 °F 66.6 °F 30.12 in SE 0.9 mph 4.0 mph 66% 0.00 in
13:59 79.0 °F 68.0 °F 30.12 in Calm     69% 0.00 in
14:04 79.2 °F 67.3 °F 30.12 in SW 0.9 mph 1.0 mph 67% 0.00 in
14:09 79.2 °F 67.6 °F 30.11 in Calm     68% 0.00 in
14:14 79.3 °F 66.9 °F 30.11 in Calm   1.0 mph 66% 0.00 in
14:19 79.2 °F 66.4 °F 30.11 in Calm   2.0 mph 65% 0.00 in
14:24 79.0 °F 66.2 °F 30.11 in Calm   1.0 mph 65% 0.00 in
14:29 78.6 °F 65.8 °F 30.11 in Calm     65% 0.00 in
14:31 78.6 °F 66.4 °F 30.11 in Calm     66% 0.00 in
14:36 78.4 °F 66.6 °F 30.11 in Calm   2.0 mph 67% 0.00 in
14:41 78.4 °F 66.6 °F 30.10 in Calm     67% 0.00 in
14:46 78.6 °F 68.0 °F 30.10 in Calm     70% 0.00 in
14:51 78.4 °F 67.5 °F 30.10 in Calm     69% 0.00 in
14:56 78.3 °F 66.7 °F 30.10 in Calm     68% 0.00 in
15:01 78.1 °F 66.2 °F 30.10 in ENE 0.9 mph 2.0 mph 67% 0.00 in
15:06 78.1 °F 66.7 °F 30.10 in Calm     68% 0.00 in
15:11 77.7 °F 65.8 °F 30.10 in Calm   1.0 mph 67% 0.00 in
15:16 77.7 °F 66.4 °F 30.10 in Calm     68% 0.00 in
15:21 77.7 °F 66.4 °F 30.10 in Calm   1.0 mph 68% 0.00 in
15:26 77.9 °F 66.9 °F 30.10 in Calm     69% 0.00 in
15:31 78.1 °F 67.1 °F 30.10 in Calm   1.0 mph 69% 0.00 in
15:36 78.3 °F 66.7 °F 30.10 in Calm     68% 0.00 in
15:41 78.4 °F 66.2 °F 30.10 in Calm   2.0 mph 66% 0.00 in
15:46 78.6 °F 66.4 °F 30.10 in Calm     66% 0.00 in
15:51 78.6 °F 65.5 °F 30.09 in Calm   2.0 mph 64% 0.00 in
15:56 78.6 °F 65.5 °F 30.09 in Calm   1.0 mph 64% 0.00 in
16:02 78.6 °F 65.5 °F 30.09 in Calm   1.0 mph 64% 0.00 in
16:22 78.6 °F 65.5 °F 30.09 in Calm   1.0 mph 64% 0.00 in
16:27 78.6 °F 64.0 °F 30.09 in Calm     61% 0.00 in
16:32 79.0 °F 64.4 °F 30.09 in Calm   1.0 mph 61% 0.00 in
16:37 79.0 °F 64.8 °F 30.09 in Calm   1.0 mph 62% 0.00 in
16:42 79.0 °F 65.3 °F 30.09 in Calm   1.0 mph 63% 0.00 in
16:47 78.8 °F 65.1 °F 30.09 in SE 0.9 mph 1.0 mph 63% 0.00 in
16:52 78.8 °F 65.1 °F 30.09 in Calm     63% 0.00 in
16:57 78.6 °F 65.8 °F 30.09 in Calm     65% 0.00 in
17:02 78.6 °F 66.4 °F 30.09 in Calm     66% 0.00 in
17:12 78.3 °F 66.0 °F 30.09 in Calm     66% 0.00 in
17:17 78.3 °F 66.4 °F 30.09 in Calm     67% 0.00 in
17:22 78.3 °F 66.7 °F 30.09 in Calm     68% 0.00 in
17:27 78.1 °F 66.7 °F 30.09 in Calm     68% 0.00 in
17:32 78.1 °F 66.2 °F 30.10 in Calm     67% 0.00 in
17:37 77.9 °F 66.0 °F 30.10 in Calm     67% 0.00 in
17:42 77.9 °F 66.6 °F 30.09 in Calm     68% 0.00 in
17:47 77.7 °F 66.7 °F 30.10 in Calm     69% 0.00 in
17:52 77.4 °F 66.7 °F 30.10 in Calm     70% 0.00 in
17:57 77.2 °F 66.2 °F 30.10 in Calm     69% 0.00 in
18:02 76.8 °F 66.2 °F 30.10 in Calm     70% 0.00 in
18:07 76.8 °F 65.8 °F 30.10 in Calm   1.0 mph 69% 0.00 in
18:12 76.6 °F 66.2 °F 30.10 in Calm     70% 0.00 in
18:17 76.3 °F 66.2 °F 30.10 in Calm   1.0 mph 71% 0.00 in
18:22 76.1 °F 66.4 °F 30.10 in Calm     72% 0.00 in
18:27 75.7 °F 66.0 °F 30.10 in Calm   1.0 mph 72% 0.00 in
18:33 75.7 °F 66.0 °F 30.10 in Calm   1.0 mph 72% 0.00 in
18:38 75.6 °F 65.8 °F 30.10 in Calm     72% 0.00 in
18:43 75.6 °F 65.8 °F 30.10 in Calm     72% 0.00 in
18:48 75.6 °F 66.4 °F 30.10 in Calm     73% 0.00 in
18:53 75.4 °F 66.2 °F 30.10 in Calm     73% 0.00 in
18:58 75.0 °F 66.2 °F 30.10 in Calm   1.0 mph 74% 0.00 in
19:03 74.8 °F 66.0 °F 30.10 in Calm     74% 0.00 in
19:08 74.7 °F 66.2 °F 30.10 in Calm     75% 0.00 in
19:13 74.1 °F 66.4 °F 30.10 in Calm     77% 0.00 in
19:18 73.8 °F 66.4 °F 30.10 in Calm     78% 0.00 in
19:23 73.2 °F 66.4 °F 30.10 in Calm     79% 0.00 in
19:28 72.9 °F 66.4 °F 30.11 in Calm     80% 0.00 in
19:33 72.3 °F 65.8 °F 30.11 in Calm     80% 0.00 in
19:43 71.2 °F 65.5 °F 30.11 in Calm     82% 0.00 in
19:48 71.1 °F 66.0 °F 30.11 in Calm     84% 0.00 in
19:58 70.5 °F 65.8 °F 30.11 in Calm     85% 0.00 in
20:03 70.5 °F 65.8 °F 30.11 in Calm     85% 0.00 in
20:08 70.2 °F 65.5 °F 30.12 in Calm     85% 0.00 in
20:14 69.6 °F 65.3 °F 30.12 in Calm     86% 0.00 in
20:19 69.3 °F 65.3 °F 30.12 in Calm     87% 0.00 in
20:24 69.1 °F 64.8 °F 30.12 in Calm     86% 0.00 in
20:34 68.5 °F 64.6 °F 30.12 in Calm     87% 0.00 in
20:39 68.4 °F 64.6 °F 30.12 in Calm     88% 0.00 in
20:44 68.2 °F 64.4 °F 30.12 in Calm     88% 0.00 in
20:49 67.8 °F 64.4 °F 30.12 in Calm     89% 0.00 in
20:54 67.8 °F 64.2 °F 30.12 in Calm     88% 0.00 in
20:59 67.8 °F 64.2 °F 30.12 in Calm     88% 0.00 in
21:04 67.8 °F 63.9 °F 30.12 in Calm     87% 0.00 in
21:09 67.6 °F 64.2 °F 30.12 in Calm     89% 0.00 in
21:14 67.3 °F 63.9 °F 30.12 in Calm     89% 0.00 in
21:19 66.9 °F 63.9 °F 30.13 in Calm     90% 0.00 in
21:24 66.6 °F 63.9 °F 30.13 in Calm     91% 0.00 in
21:29 66.4 °F 63.7 °F 30.13 in Calm     91% 0.00 in
21:34 66.2 °F 63.5 °F 30.13 in Calm     91% 0.00 in
21:35 66.2 °F 63.5 °F 30.13 in Calm     91% 0.00 in
21:39 66.0 °F 63.3 °F 30.13 in Calm     91% 0.00 in
21:44 66.0 °F 63.7 °F 30.14 in Calm     92% 0.00 in
21:46 66.0 °F 63.3 °F 30.14 in Calm     91% 0.00 in
21:51 66.0 °F 63.3 °F 30.14 in Calm     91% 0.00 in
22:01 66.0 °F 63.7 °F 30.14 in Calm     92% 0.00 in
22:06 66.0 °F 63.9 °F 30.14 in Calm     93% 0.00 in
22:11 65.8 °F 64.0 °F 30.14 in Calm     94% 0.00 in
22:16 65.7 °F 63.5 °F 30.14 in Calm     93% 0.00 in
22:21 65.5 °F 63.7 °F 30.14 in Calm     94% 0.00 in
22:26 65.1 °F 63.3 °F 30.14 in Calm     94% 0.00 in
22:31 64.9 °F 63.1 °F 30.15 in Calm     94% 0.00 in
22:36 64.8 °F 63.0 °F 30.15 in Calm     94% 0.00 in
22:42 64.8 °F 63.0 °F 30.15 in Calm     94% 0.00 in
22:46 64.6 °F 62.8 °F 30.15 in Calm     94% 0.00 in
22:52 64.2 °F 62.8 °F 30.15 in Calm     95% 0.00 in
23:02 64.2 °F 63.1 °F 30.15 in Calm     96% 0.00 in
23:07 64.0 °F 63.0 °F 30.15 in Calm     96% 0.00 in
23:14 63.9 °F 62.8 °F 30.15 in Calm     96% 0.00 in
23:19 63.9 °F 62.8 °F 30.15 in Calm     96% 0.00 in
23:24 63.7 °F 62.6 °F 30.15 in Calm     96% 0.00 in
23:27 63.5 °F 62.4 °F 30.15 in Calm     96% 0.00 in
23:32 63.3 °F 62.2 °F 30.15 in Calm     96% 0.00 in
23:37 63.3 °F 62.4 °F 30.15 in Calm     97% 0.00 in
23:42 63.1 °F 62.2 °F 30.15 in Calm     97% 0.00 in
23:47 63.1 °F 62.1 °F 30.15 in Calm     96% 0.00 in
23:52 63.1 °F 62.1 °F 30.15 in Calm     96% 0.00 in
23:57 63.1 °F 62.2 °F 30.14 in Calm     97% 0.00 in
WheeWeather.com
Compliments of Weather Underground - 3.75 mb